sensor_id;sensor_type;location;lat;lon;timestamp;P1;durP1;ratioP1;P2;durP2;ratioP2
12171;SDS011;6149;52.418;13.668;2023-10-09T00:01:41;2.47;;;1.57;;
12171;SDS011;6149;52.418;13.668;2023-10-09T00:04:09;2.00;;;1.50;;
12171;SDS011;6149;52.418;13.668;2023-10-09T00:06:40;2.40;;;1.80;;
12171;SDS011;6149;52.418;13.668;2023-10-09T00:09:08;2.43;;;1.73;;
12171;SDS011;6149;52.418;13.668;2023-10-09T00:11:55;2.47;;;1.90;;
12171;SDS011;6149;52.418;13.668;2023-10-09T00:14:24;4.10;;;1.60;;
12171;SDS011;6149;52.418;13.668;2023-10-09T00:16:51;3.87;;;1.80;;
12171;SDS011;6149;52.418;13.668;2023-10-09T00:19:30;2.40;;;1.70;;
12171;SDS011;6149;52.418;13.668;2023-10-09T00:21:58;3.60;;;1.80;;
12171;SDS011;6149;52.418;13.668;2023-10-09T00:24:31;2.93;;;2.20;;
12171;SDS011;6149;52.418;13.668;2023-10-09T00:26:58;3.10;;;2.00;;
12171;SDS011;6149;52.418;13.668;2023-10-09T00:29:38;2.77;;;2.00;;
12171;SDS011;6149;52.418;13.668;2023-10-09T00:32:10;3.47;;;1.57;;
12171;SDS011;6149;52.418;13.668;2023-10-09T00:34:47;2.70;;;1.70;;
12171;SDS011;6149;52.418;13.668;2023-10-09T00:37:17;2.47;;;1.60;;
12171;SDS011;6149;52.418;13.668;2023-10-09T00:39:48;5.30;;;1.90;;
12171;SDS011;6149;52.418;13.668;2023-10-09T00:42:21;2.80;;;1.63;;
12171;SDS011;6149;52.418;13.668;2023-10-09T00:44:54;3.63;;;2.10;;
12171;SDS011;6149;52.418;13.668;2023-10-09T00:47:21;5.13;;;1.90;;
12171;SDS011;6149;52.418;13.668;2023-10-09T00:49:52;3.47;;;1.90;;
12171;SDS011;6149;52.418;13.668;2023-10-09T00:52:25;3.67;;;2.00;;
12171;SDS011;6149;52.418;13.668;2023-10-09T00:55:05;2.70;;;1.97;;
12171;SDS011;6149;52.418;13.668;2023-10-09T00:57:38;3.97;;;2.03;;
12171;SDS011;6149;52.418;13.668;2023-10-09T01:00:08;3.10;;;2.17;;
12171;SDS011;6149;52.418;13.668;2023-10-09T01:02:57;3.20;;;1.97;;
12171;SDS011;6149;52.418;13.668;2023-10-09T01:05:37;2.77;;;2.00;;
12171;SDS011;6149;52.418;13.668;2023-10-09T01:08:10;3.07;;;1.87;;
12171;SDS011;6149;52.418;13.668;2023-10-09T01:10:48;4.47;;;2.10;;
12171;SDS011;6149;52.418;13.668;2023-10-09T01:13:21;4.17;;;2.30;;
12171;SDS011;6149;52.418;13.668;2023-10-09T01:15:55;5.33;;;2.23;;
12171;SDS011;6149;52.418;13.668;2023-10-09T01:18:23;2.73;;;1.90;;
12171;SDS011;6149;52.418;13.668;2023-10-09T01:20:57;2.90;;;2.07;;
12171;SDS011;6149;52.418;13.668;2023-10-09T01:23:25;4.60;;;2.30;;
12171;SDS011;6149;52.418;13.668;2023-10-09T01:25:54;2.77;;;2.10;;
12171;SDS011;6149;52.418;13.668;2023-10-09T01:28:21;2.67;;;2.30;;
12171;SDS011;6149;52.418;13.668;2023-10-09T01:30:49;2.53;;;2.00;;
12171;SDS011;6149;52.418;13.668;2023-10-09T01:33:16;3.87;;;2.20;;
12171;SDS011;6149;52.418;13.668;2023-10-09T01:35:49;3.40;;;2.30;;
12171;SDS011;6149;52.418;13.668;2023-10-09T01:38:21;2.47;;;1.93;;
12171;SDS011;6149;52.418;13.668;2023-10-09T01:40:58;2.67;;;2.20;;
12171;SDS011;6149;52.418;13.668;2023-10-09T01:43:32;3.63;;;2.10;;
12171;SDS011;6149;52.418;13.668;2023-10-09T01:46:00;3.40;;;2.07;;
12171;SDS011;6149;52.418;13.668;2023-10-09T01:48:28;4.03;;;2.50;;
12171;SDS011;6149;52.418;13.668;2023-10-09T01:50:58;3.23;;;2.27;;
12171;SDS011;6149;52.418;13.668;2023-10-09T01:53:25;4.10;;;2.00;;
12171;SDS011;6149;52.418;13.668;2023-10-09T01:55:55;3.73;;;2.23;;
12171;SDS011;6149;52.418;13.668;2023-10-09T01:58:25;3.47;;;2.17;;
12171;SDS011;6149;52.418;13.668;2023-10-09T02:00:52;5.73;;;2.20;;
12171;SDS011;6149;52.418;13.668;2023-10-09T02:03:21;2.47;;;2.10;;
12171;SDS011;6149;52.418;13.668;2023-10-09T02:05:49;3.77;;;2.37;;
12171;SDS011;6149;52.418;13.668;2023-10-09T02:08:16;3.07;;;2.00;;
12171;SDS011;6149;52.418;13.668;2023-10-09T02:10:47;4.73;;;2.40;;
12171;SDS011;6149;52.418;13.668;2023-10-09T02:13:13;4.50;;;2.70;;
12171;SDS011;6149;52.418;13.668;2023-10-09T02:15:43;3.30;;;2.53;;
12171;SDS011;6149;52.418;13.668;2023-10-09T02:18:24;5.53;;;2.37;;
12171;SDS011;6149;52.418;13.668;2023-10-09T02:21:05;5.07;;;2.37;;
12171;SDS011;6149;52.418;13.668;2023-10-09T02:23:39;2.60;;;2.27;;
12171;SDS011;6149;52.418;13.668;2023-10-09T02:26:11;3.67;;;2.50;;
12171;SDS011;6149;52.418;13.668;2023-10-09T02:28:44;4.37;;;2.50;;
12171;SDS011;6149;52.418;13.668;2023-10-09T02:31:19;5.90;;;2.13;;
12171;SDS011;6149;52.418;13.668;2023-10-09T02:33:48;3.50;;;2.57;;
12171;SDS011;6149;52.418;13.668;2023-10-09T02:36:16;3.80;;;2.80;;
12171;SDS011;6149;52.418;13.668;2023-10-09T02:38:43;3.97;;;2.63;;
12171;SDS011;6149;52.418;13.668;2023-10-09T02:41:12;4.73;;;2.43;;
12171;SDS011;6149;52.418;13.668;2023-10-09T02:43:47;4.57;;;2.83;;
12171;SDS011;6149;52.418;13.668;2023-10-09T02:46:16;3.83;;;2.40;;
12171;SDS011;6149;52.418;13.668;2023-10-09T02:48:46;4.20;;;2.40;;
12171;SDS011;6149;52.418;13.668;2023-10-09T02:51:16;3.30;;;2.03;;
12171;SDS011;6149;52.418;13.668;2023-10-09T02:54:07;6.30;;;2.83;;
12171;SDS011;6149;52.418;13.668;2023-10-09T02:56:43;3.93;;;3.03;;
12171;SDS011;6149;52.418;13.668;2023-10-09T02:59:12;4.33;;;2.83;;
12171;SDS011;6149;52.418;13.668;2023-10-09T03:01:40;4.93;;;2.40;;
12171;SDS011;6149;52.418;13.668;2023-10-09T03:04:07;3.40;;;2.77;;
12171;SDS011;6149;52.418;13.668;2023-10-09T03:06:36;4.93;;;2.57;;
12171;SDS011;6149;52.418;13.668;2023-10-09T03:09:08;5.53;;;2.87;;
12171;SDS011;6149;52.418;13.668;2023-10-09T03:11:42;4.87;;;2.80;;
12171;SDS011;6149;52.418;13.668;2023-10-09T03:14:11;7.07;;;2.80;;
12171;SDS011;6149;52.418;13.668;2023-10-09T03:16:38;3.93;;;2.60;;
12171;SDS011;6149;52.418;13.668;2023-10-09T03:19:06;5.80;;;2.77;;
12171;SDS011;6149;52.418;13.668;2023-10-09T03:21:32;5.27;;;2.63;;
12171;SDS011;6149;52.418;13.668;2023-10-09T03:23:59;4.20;;;2.87;;
12171;SDS011;6149;52.418;13.668;2023-10-09T03:26:29;3.50;;;2.67;;
12171;SDS011;6149;52.418;13.668;2023-10-09T03:28:56;6.93;;;3.50;;
12171;SDS011;6149;52.418;13.668;2023-10-09T03:31:26;5.60;;;3.30;;
12171;SDS011;6149;52.418;13.668;2023-10-09T03:33:53;7.00;;;3.60;;
12171;SDS011;6149;52.418;13.668;2023-10-09T03:36:20;5.90;;;3.27;;
12171;SDS011;6149;52.418;13.668;2023-10-09T03:38:51;5.90;;;2.97;;
12171;SDS011;6149;52.418;13.668;2023-10-09T03:41:19;5.33;;;3.53;;
12171;SDS011;6149;52.418;13.668;2023-10-09T03:43:46;4.53;;;3.73;;
12171;SDS011;6149;52.418;13.668;2023-10-09T03:46:13;5.37;;;3.33;;
12171;SDS011;6149;52.418;13.668;2023-10-09T03:48:46;7.17;;;3.40;;
12171;SDS011;6149;52.418;13.668;2023-10-09T03:51:13;6.50;;;3.90;;
12171;SDS011;6149;52.418;13.668;2023-10-09T03:53:47;4.47;;;3.40;;
12171;SDS011;6149;52.418;13.668;2023-10-09T03:56:15;4.27;;;3.50;;
12171;SDS011;6149;52.418;13.668;2023-10-09T03:58:44;3.97;;;3.37;;
12171;SDS011;6149;52.418;13.668;2023-10-09T04:01:13;5.40;;;3.70;;
12171;SDS011;6149;52.418;13.668;2023-10-09T04:03:47;5.93;;;3.63;;
12171;SDS011;6149;52.418;13.668;2023-10-09T04:06:14;6.27;;;4.13;;
12171;SDS011;6149;52.418;13.668;2023-10-09T04:08:42;6.40;;;3.63;;
12171;SDS011;6149;52.418;13.668;2023-10-09T04:11:14;5.43;;;3.77;;
12171;SDS011;6149;52.418;13.668;2023-10-09T04:13:42;5.37;;;4.10;;
12171;SDS011;6149;52.418;13.668;2023-10-09T04:16:11;5.13;;;3.73;;
12171;SDS011;6149;52.418;13.668;2023-10-09T04:18:52;7.13;;;4.37;;
12171;SDS011;6149;52.418;13.668;2023-10-09T04:21:21;5.97;;;4.13;;
12171;SDS011;6149;52.418;13.668;2023-10-09T04:23:59;4.03;;;3.43;;
12171;SDS011;6149;52.418;13.668;2023-10-09T04:26:49;5.27;;;4.77;;
12171;SDS011;6149;52.418;13.668;2023-10-09T04:29:22;5.47;;;4.03;;
12171;SDS011;6149;52.418;13.668;2023-10-09T04:31:52;5.30;;;4.43;;
12171;SDS011;6149;52.418;13.668;2023-10-09T04:34:20;5.93;;;4.40;;
12171;SDS011;6149;52.418;13.668;2023-10-09T04:36:54;6.37;;;5.03;;
12171;SDS011;6149;52.418;13.668;2023-10-09T04:39:25;8.57;;;5.10;;
12171;SDS011;6149;52.418;13.668;2023-10-09T04:42:02;7.17;;;4.97;;
12171;SDS011;6149;52.418;13.668;2023-10-09T04:44:47;7.17;;;5.03;;
12171;SDS011;6149;52.418;13.668;2023-10-09T04:47:45;7.57;;;5.37;;
12171;SDS011;6149;52.418;13.668;2023-10-09T04:50:23;7.13;;;5.33;;
12171;SDS011;6149;52.418;13.668;2023-10-09T04:53:11;7.57;;;5.20;;
12171;SDS011;6149;52.418;13.668;2023-10-09T04:55:49;7.40;;;5.40;;
12171;SDS011;6149;52.418;13.668;2023-10-09T04:58:30;8.10;;;5.57;;
12171;SDS011;6149;52.418;13.668;2023-10-09T05:01:04;10.03;;;5.90;;
12171;SDS011;6149;52.418;13.668;2023-10-09T05:03:38;5.80;;;4.73;;
12171;SDS011;6149;52.418;13.668;2023-10-09T05:06:09;7.40;;;6.17;;
12171;SDS011;6149;52.418;13.668;2023-10-09T05:08:54;7.23;;;5.70;;
12171;SDS011;6149;52.418;13.668;2023-10-09T05:11:21;9.47;;;6.30;;
12171;SDS011;6149;52.418;13.668;2023-10-09T05:14:01;9.43;;;6.20;;
12171;SDS011;6149;52.418;13.668;2023-10-09T05:16:37;7.33;;;6.30;;
12171;SDS011;6149;52.418;13.668;2023-10-09T05:19:19;7.53;;;5.90;;
12171;SDS011;6149;52.418;13.668;2023-10-09T05:21:58;8.43;;;6.83;;
12171;SDS011;6149;52.418;13.668;2023-10-09T05:24:30;6.67;;;5.97;;
12171;SDS011;6149;52.418;13.668;2023-10-09T05:27:12;6.60;;;5.77;;
12171;SDS011;6149;52.418;13.668;2023-10-09T05:29:44;7.00;;;6.00;;
12171;SDS011;6149;52.418;13.668;2023-10-09T05:32:24;8.17;;;5.60;;
12171;SDS011;6149;52.418;13.668;2023-10-09T05:34:55;6.73;;;5.67;;
12171;SDS011;6149;52.418;13.668;2023-10-09T05:37:40;8.47;;;6.20;;
12171;SDS011;6149;52.418;13.668;2023-10-09T05:40:08;8.07;;;6.23;;
12171;SDS011;6149;52.418;13.668;2023-10-09T05:42:48;7.77;;;6.20;;
12171;SDS011;6149;52.418;13.668;2023-10-09T05:45:25;8.90;;;6.43;;
12171;SDS011;6149;52.418;13.668;2023-10-09T05:48:16;7.50;;;6.40;;
12171;SDS011;6149;52.418;13.668;2023-10-09T05:50:59;6.73;;;5.43;;
12171;SDS011;6149;52.418;13.668;2023-10-09T05:54:06;8.33;;;6.20;;
12171;SDS011;6149;52.418;13.668;2023-10-09T05:56:51;9.80;;;6.13;;
12171;SDS011;6149;52.418;13.668;2023-10-09T05:59:55;7.23;;;5.90;;
12171;SDS011;6149;52.418;13.668;2023-10-09T06:02:40;7.53;;;5.80;;
12171;SDS011;6149;52.418;13.668;2023-10-09T06:05:24;7.00;;;5.83;;
12171;SDS011;6149;52.418;13.668;2023-10-09T06:08:27;6.90;;;5.37;;
12171;SDS011;6149;52.418;13.668;2023-10-09T06:11:10;6.40;;;5.13;;
12171;SDS011;6149;52.418;13.668;2023-10-09T06:13:52;7.00;;;5.20;;
12171;SDS011;6149;52.418;13.668;2023-10-09T06:16:29;7.87;;;5.53;;
12171;SDS011;6149;52.418;13.668;2023-10-09T06:19:08;7.77;;;4.53;;
12171;SDS011;6149;52.418;13.668;2023-10-09T06:21:36;5.93;;;4.30;;
12171;SDS011;6149;52.418;13.668;2023-10-09T06:24:25;5.73;;;4.47;;
12171;SDS011;6149;52.418;13.668;2023-10-09T06:26:58;5.73;;;5.17;;
12171;SDS011;6149;52.418;13.668;2023-10-09T06:29:38;7.33;;;5.17;;
12171;SDS011;6149;52.418;13.668;2023-10-09T06:32:16;6.13;;;4.63;;
12171;SDS011;6149;52.418;13.668;2023-10-09T06:35:01;6.33;;;4.67;;
12171;SDS011;6149;52.418;13.668;2023-10-09T06:37:44;6.30;;;4.47;;
12171;SDS011;6149;52.418;13.668;2023-10-09T06:40:41;6.90;;;4.53;;
12171;SDS011;6149;52.418;13.668;2023-10-09T06:43:31;8.57;;;4.80;;
12171;SDS011;6149;52.418;13.668;2023-10-09T06:46:02;6.23;;;4.60;;
12171;SDS011;6149;52.418;13.668;2023-10-09T06:48:42;7.07;;;4.83;;
12171;SDS011;6149;52.418;13.668;2023-10-09T06:51:12;5.40;;;4.40;;
12171;SDS011;6149;52.418;13.668;2023-10-09T06:53:59;5.83;;;4.33;;
12171;SDS011;6149;52.418;13.668;2023-10-09T06:56:30;7.07;;;5.00;;
12171;SDS011;6149;52.418;13.668;2023-10-09T06:59:11;6.80;;;4.50;;
12171;SDS011;6149;52.418;13.668;2023-10-09T07:01:41;8.10;;;4.70;;
12171;SDS011;6149;52.418;13.668;2023-10-09T07:04:07;6.00;;;4.23;;
12171;SDS011;6149;52.418;13.668;2023-10-09T07:06:45;5.57;;;4.57;;
12171;SDS011;6149;52.418;13.668;2023-10-09T07:09:16;8.47;;;5.47;;
12171;SDS011;6149;52.418;13.668;2023-10-09T07:11:44;7.30;;;5.37;;
12171;SDS011;6149;52.418;13.668;2023-10-09T07:14:28;8.83;;;5.60;;
12171;SDS011;6149;52.418;13.668;2023-10-09T07:17:18;6.53;;;4.73;;
12171;SDS011;6149;52.418;13.668;2023-10-09T07:20:08;6.80;;;4.93;;
12171;SDS011;6149;52.418;13.668;2023-10-09T07:22:58;7.73;;;6.33;;
12171;SDS011;6149;52.418;13.668;2023-10-09T07:25:38;8.33;;;6.13;;
12171;SDS011;6149;52.418;13.668;2023-10-09T07:28:20;7.60;;;6.00;;
12171;SDS011;6149;52.418;13.668;2023-10-09T07:31:07;8.27;;;5.90;;
12171;SDS011;6149;52.418;13.668;2023-10-09T07:33:49;8.57;;;6.20;;
12171;SDS011;6149;52.418;13.668;2023-10-09T07:36:32;12.17;;;10.80;;
12171;SDS011;6149;52.418;13.668;2023-10-09T07:39:04;9.37;;;7.13;;
12171;SDS011;6149;52.418;13.668;2023-10-09T07:41:42;12.00;;;7.10;;
12171;SDS011;6149;52.418;13.668;2023-10-09T07:44:21;9.20;;;8.00;;
12171;SDS011;6149;52.418;13.668;2023-10-09T07:47:01;7.87;;;7.07;;
12171;SDS011;6149;52.418;13.668;2023-10-09T07:49:45;8.70;;;6.80;;
12171;SDS011;6149;52.418;13.668;2023-10-09T07:52:18;8.40;;;7.40;;
12171;SDS011;6149;52.418;13.668;2023-10-09T07:54:49;8.77;;;6.83;;
12171;SDS011;6149;52.418;13.668;2023-10-09T07:57:19;9.00;;;7.00;;
12171;SDS011;6149;52.418;13.668;2023-10-09T07:59:51;8.20;;;6.23;;
12171;SDS011;6149;52.418;13.668;2023-10-09T08:02:26;9.23;;;6.40;;
12171;SDS011;6149;52.418;13.668;2023-10-09T08:05:01;9.93;;;6.93;;
12171;SDS011;6149;52.418;13.668;2023-10-09T08:07:43;7.43;;;5.97;;
12171;SDS011;6149;52.418;13.668;2023-10-09T08:10:23;7.20;;;5.33;;
12171;SDS011;6149;52.418;13.668;2023-10-09T08:13:22;6.90;;;5.70;;
12171;SDS011;6149;52.418;13.668;2023-10-09T08:16:06;9.97;;;6.53;;
12171;SDS011;6149;52.418;13.668;2023-10-09T08:18:42;9.07;;;6.27;;
12171;SDS011;6149;52.418;13.668;2023-10-09T08:21:09;6.83;;;6.10;;
12171;SDS011;6149;52.418;13.668;2023-10-09T08:24:06;6.83;;;5.90;;
12171;SDS011;6149;52.418;13.668;2023-10-09T08:26:54;6.83;;;6.13;;
12171;SDS011;6149;52.418;13.668;2023-10-09T08:29:43;8.43;;;6.17;;
12171;SDS011;6149;52.418;13.668;2023-10-09T08:32:12;7.93;;;6.53;;
12171;SDS011;6149;52.418;13.668;2023-10-09T08:35:03;8.13;;;6.43;;
12171;SDS011;6149;52.418;13.668;2023-10-09T08:37:44;6.70;;;5.93;;
12171;SDS011;6149;52.418;13.668;2023-10-09T08:40:13;12.53;;;11.23;;
12171;SDS011;6149;52.418;13.668;2023-10-09T08:42:44;7.00;;;6.10;;
12171;SDS011;6149;52.418;13.668;2023-10-09T08:45:19;7.07;;;6.17;;
12171;SDS011;6149;52.418;13.668;2023-10-09T08:47:50;8.77;;;6.53;;
12171;SDS011;6149;52.418;13.668;2023-10-09T08:50:19;8.17;;;6.67;;
12171;SDS011;6149;52.418;13.668;2023-10-09T08:52:46;7.70;;;6.27;;
12171;SDS011;6149;52.418;13.668;2023-10-09T08:55:15;7.97;;;6.43;;
12171;SDS011;6149;52.418;13.668;2023-10-09T08:57:42;7.50;;;5.50;;
12171;SDS011;6149;52.418;13.668;2023-10-09T09:00:12;7.90;;;6.10;;
12171;SDS011;6149;52.418;13.668;2023-10-09T09:02:46;8.23;;;6.47;;
12171;SDS011;6149;52.418;13.668;2023-10-09T09:05:16;7.03;;;6.33;;
12171;SDS011;6149;52.418;13.668;2023-10-09T09:07:43;6.53;;;5.83;;
12171;SDS011;6149;52.418;13.668;2023-10-09T09:10:10;6.63;;;5.67;;
12171;SDS011;6149;52.418;13.668;2023-10-09T09:12:43;6.50;;;5.60;;
12171;SDS011;6149;52.418;13.668;2023-10-09T09:15:14;8.53;;;5.73;;
12171;SDS011;6149;52.418;13.668;2023-10-09T09:17:45;7.07;;;5.87;;
12171;SDS011;6149;52.418;13.668;2023-10-09T09:20:21;6.20;;;5.57;;
12171;SDS011;6149;52.418;13.668;2023-10-09T09:22:52;7.00;;;5.63;;
12171;SDS011;6149;52.418;13.668;2023-10-09T09:25:21;7.13;;;5.23;;
12171;SDS011;6149;52.418;13.668;2023-10-09T09:27:49;6.60;;;5.90;;
12171;SDS011;6149;52.418;13.668;2023-10-09T09:30:24;8.30;;;6.23;;
12171;SDS011;6149;52.418;13.668;2023-10-09T09:32:58;7.70;;;6.23;;
12171;SDS011;6149;52.418;13.668;2023-10-09T09:35:55;8.50;;;5.60;;
12171;SDS011;6149;52.418;13.668;2023-10-09T09:38:23;8.87;;;6.47;;
12171;SDS011;6149;52.418;13.668;2023-10-09T09:40:54;8.00;;;6.03;;
12171;SDS011;6149;52.418;13.668;2023-10-09T09:43:27;6.77;;;5.97;;
12171;SDS011;6149;52.418;13.668;2023-10-09T09:45:57;7.20;;;6.03;;
12171;SDS011;6149;52.418;13.668;2023-10-09T09:48:33;7.60;;;6.27;;
12171;SDS011;6149;52.418;13.668;2023-10-09T09:51:09;8.60;;;6.40;;
12171;SDS011;6149;52.418;13.668;2023-10-09T09:53:40;8.73;;;6.93;;
12171;SDS011;6149;52.418;13.668;2023-10-09T09:56:06;8.33;;;6.50;;
12171;SDS011;6149;52.418;13.668;2023-10-09T09:58:38;7.97;;;6.63;;
12171;SDS011;6149;52.418;13.668;2023-10-09T10:01:09;7.50;;;6.80;;
12171;SDS011;6149;52.418;13.668;2023-10-09T10:03:42;9.23;;;6.63;;
12171;SDS011;6149;52.418;13.668;2023-10-09T10:06:17;9.43;;;6.90;;
12171;SDS011;6149;52.418;13.668;2023-10-09T10:08:47;7.93;;;7.13;;
12171;SDS011;6149;52.418;13.668;2023-10-09T10:14:09;7.37;;;6.57;;
12171;SDS011;6149;52.418;13.668;2023-10-09T10:17:02;9.37;;;6.37;;
12171;SDS011;6149;52.418;13.668;2023-10-09T10:22:26;9.00;;;7.57;;
12171;SDS011;6149;52.418;13.668;2023-10-09T10:24:55;9.50;;;7.50;;
12171;SDS011;6149;52.418;13.668;2023-10-09T10:27:27;8.07;;;7.17;;
12171;SDS011;6149;52.418;13.668;2023-10-09T10:33:03;10.57;;;8.23;;
12171;SDS011;6149;52.418;13.668;2023-10-09T10:35:40;9.83;;;8.60;;
12171;SDS011;6149;52.418;13.668;2023-10-09T10:38:27;8.37;;;7.33;;
12171;SDS011;6149;52.418;13.668;2023-10-09T10:41:12;10.73;;;8.63;;
12171;SDS011;6149;52.418;13.668;2023-10-09T10:43:48;10.67;;;8.57;;
12171;SDS011;6149;52.418;13.668;2023-10-09T10:46:24;9.87;;;7.90;;
12171;SDS011;6149;52.418;13.668;2023-10-09T10:49:03;9.10;;;8.20;;
12171;SDS011;6149;52.418;13.668;2023-10-09T10:51:41;9.37;;;8.10;;
12171;SDS011;6149;52.418;13.668;2023-10-09T10:54:19;9.30;;;8.30;;
12171;SDS011;6149;52.418;13.668;2023-10-09T10:57:13;11.27;;;8.33;;
12171;SDS011;6149;52.418;13.668;2023-10-09T10:59:44;10.70;;;8.57;;
12171;SDS011;6149;52.418;13.668;2023-10-09T11:02:14;9.70;;;8.67;;
12171;SDS011;6149;52.418;13.668;2023-10-09T11:04:45;9.67;;;8.50;;
12171;SDS011;6149;52.418;13.668;2023-10-09T11:07:20;9.97;;;8.90;;
12171;SDS011;6149;52.418;13.668;2023-10-09T11:09:52;10.30;;;8.53;;
12171;SDS011;6149;52.418;13.668;2023-10-09T11:12:44;9.93;;;8.93;;
12171;SDS011;6149;52.418;13.668;2023-10-09T11:15:33;9.00;;;8.10;;
12171;SDS011;6149;52.418;13.668;2023-10-09T11:18:09;11.10;;;10.00;;
12171;SDS011;6149;52.418;13.668;2023-10-09T11:20:48;9.03;;;8.13;;
12171;SDS011;6149;52.418;13.668;2023-10-09T11:23:31;9.23;;;8.30;;
12171;SDS011;6149;52.418;13.668;2023-10-09T11:26:04;11.77;;;9.60;;
12171;SDS011;6149;52.418;13.668;2023-10-09T11:29:05;9.93;;;8.93;;
12171;SDS011;6149;52.418;13.668;2023-10-09T11:31:57;9.87;;;8.87;;
12171;SDS011;6149;52.418;13.668;2023-10-09T11:34:25;10.80;;;8.73;;
12171;SDS011;6149;52.418;13.668;2023-10-09T11:36:58;11.37;;;7.97;;
12171;SDS011;6149;52.418;13.668;2023-10-09T11:39:26;9.70;;;8.43;;
12171;SDS011;6149;52.418;13.668;2023-10-09T11:42:03;9.70;;;8.07;;
12171;SDS011;6149;52.418;13.668;2023-10-09T11:44:34;8.73;;;7.93;;
12171;SDS011;6149;52.418;13.668;2023-10-09T11:47:06;9.30;;;8.47;;
12171;SDS011;6149;52.418;13.668;2023-10-09T11:49:50;10.67;;;9.50;;
12171;SDS011;6149;52.418;13.668;2023-10-09T11:55:34;10.97;;;9.93;;
12171;SDS011;6149;52.418;13.668;2023-10-09T11:58:02;9.77;;;8.77;;
12171;SDS011;6149;52.418;13.668;2023-10-09T12:00:31;10.57;;;9.43;;
12171;SDS011;6149;52.418;13.668;2023-10-09T12:03:09;11.53;;;10.13;;
12171;SDS011;6149;52.418;13.668;2023-10-09T12:05:38;12.77;;;9.60;;
12171;SDS011;6149;52.418;13.668;2023-10-09T12:08:10;9.67;;;8.67;;
12171;SDS011;6149;52.418;13.668;2023-10-09T12:10:40;9.87;;;8.33;;
12171;SDS011;6149;52.418;13.668;2023-10-09T12:13:07;10.63;;;8.80;;
12171;SDS011;6149;52.418;13.668;2023-10-09T12:15:34;11.87;;;9.07;;
12171;SDS011;6149;52.418;13.668;2023-10-09T12:18:04;9.80;;;8.63;;
12171;SDS011;6149;52.418;13.668;2023-10-09T12:20:39;10.87;;;9.43;;
12171;SDS011;6149;52.418;13.668;2023-10-09T12:23:07;10.13;;;9.13;;
12171;SDS011;6149;52.418;13.668;2023-10-09T12:25:39;11.23;;;10.13;;
12171;SDS011;6149;52.418;13.668;2023-10-09T12:28:10;10.33;;;9.30;;
12171;SDS011;6149;52.418;13.668;2023-10-09T12:30:38;9.90;;;8.73;;
12171;SDS011;6149;52.418;13.668;2023-10-09T12:33:06;9.40;;;8.43;;
12171;SDS011;6149;52.418;13.668;2023-10-09T12:35:35;8.70;;;7.80;;
12171;SDS011;6149;52.418;13.668;2023-10-09T12:38:03;9.47;;;8.47;;
12171;SDS011;6149;52.418;13.668;2023-10-09T12:40:33;8.03;;;7.27;;
12171;SDS011;6149;52.418;13.668;2023-10-09T12:43:02;8.00;;;7.20;;
12171;SDS011;6149;52.418;13.668;2023-10-09T12:45:33;10.30;;;8.27;;
12171;SDS011;6149;52.418;13.668;2023-10-09T12:48:00;8.67;;;7.77;;
12171;SDS011;6149;52.418;13.668;2023-10-09T12:50:28;8.50;;;7.50;;
12171;SDS011;6149;52.418;13.668;2023-10-09T12:52:58;8.40;;;7.57;;
12171;SDS011;6149;52.418;13.668;2023-10-09T12:55:34;9.67;;;7.67;;
12171;SDS011;6149;52.418;13.668;2023-10-09T12:58:06;9.37;;;8.13;;
12171;SDS011;6149;52.418;13.668;2023-10-09T13:00:39;8.40;;;7.50;;
12171;SDS011;6149;52.418;13.668;2023-10-09T13:03:09;7.83;;;6.93;;
12171;SDS011;6149;52.418;13.668;2023-10-09T13:05:43;7.43;;;6.30;;
12171;SDS011;6149;52.418;13.668;2023-10-09T13:08:20;7.10;;;6.50;;
12171;SDS011;6149;52.418;13.668;2023-10-09T13:10:49;7.07;;;6.37;;
12171;SDS011;6149;52.418;13.668;2023-10-09T13:13:25;6.37;;;5.77;;
12171;SDS011;6149;52.418;13.668;2023-10-09T13:16:04;7.83;;;6.43;;
12171;SDS011;6149;52.418;13.668;2023-10-09T13:18:33;7.30;;;6.30;;
12171;SDS011;6149;52.418;13.668;2023-10-09T13:20:59;8.43;;;5.83;;
12171;SDS011;6149;52.418;13.668;2023-10-09T13:23:28;6.20;;;5.60;;
12171;SDS011;6149;52.418;13.668;2023-10-09T13:26:06;7.80;;;6.23;;
12171;SDS011;6149;52.418;13.668;2023-10-09T13:28:45;7.10;;;6.27;;
12171;SDS011;6149;52.418;13.668;2023-10-09T13:31:12;6.73;;;6.03;;
12171;SDS011;6149;52.418;13.668;2023-10-09T13:33:40;6.60;;;6.00;;
12171;SDS011;6149;52.418;13.668;2023-10-09T13:36:08;6.53;;;5.40;;
12171;SDS011;6149;52.418;13.668;2023-10-09T13:38:42;7.07;;;5.80;;
12171;SDS011;6149;52.418;13.668;2023-10-09T13:41:09;7.00;;;6.27;;
12171;SDS011;6149;52.418;13.668;2023-10-09T13:43:38;7.83;;;5.90;;
12171;SDS011;6149;52.418;13.668;2023-10-09T13:46:08;7.97;;;5.93;;
12171;SDS011;6149;52.418;13.668;2023-10-09T13:48:36;5.83;;;5.23;;
12171;SDS011;6149;52.418;13.668;2023-10-09T13:51:06;7.03;;;6.10;;
12171;SDS011;6149;52.418;13.668;2023-10-09T13:53:38;8.50;;;6.10;;
12171;SDS011;6149;52.418;13.668;2023-10-09T13:56:10;7.60;;;6.13;;
12171;SDS011;6149;52.418;13.668;2023-10-09T13:58:39;6.63;;;5.40;;
12171;SDS011;6149;52.418;13.668;2023-10-09T14:01:09;7.33;;;6.27;;
12171;SDS011;6149;52.418;13.668;2023-10-09T14:03:35;7.73;;;5.80;;
12171;SDS011;6149;52.418;13.668;2023-10-09T14:06:04;7.50;;;6.10;;
12171;SDS011;6149;52.418;13.668;2023-10-09T14:08:37;5.80;;;5.30;;
12171;SDS011;6149;52.418;13.668;2023-10-09T14:11:07;6.43;;;5.67;;
12171;SDS011;6149;52.418;13.668;2023-10-09T14:13:38;6.40;;;5.30;;
12171;SDS011;6149;52.418;13.668;2023-10-09T14:16:05;7.93;;;5.63;;
12171;SDS011;6149;52.418;13.668;2023-10-09T14:18:33;7.17;;;5.53;;
12171;SDS011;6149;52.418;13.668;2023-10-09T14:21:00;6.97;;;5.47;;
12171;SDS011;6149;52.418;13.668;2023-10-09T14:23:29;8.00;;;5.57;;
12171;SDS011;6149;52.418;13.668;2023-10-09T14:25:59;8.40;;;5.97;;
12171;SDS011;6149;52.418;13.668;2023-10-09T14:28:27;7.03;;;5.67;;
12171;SDS011;6149;52.418;13.668;2023-10-09T14:30:54;5.90;;;5.30;;
12171;SDS011;6149;52.418;13.668;2023-10-09T14:33:24;8.33;;;6.20;;
12171;SDS011;6149;52.418;13.668;2023-10-09T14:35:54;6.40;;;5.17;;
12171;SDS011;6149;52.418;13.668;2023-10-09T14:38:20;7.70;;;5.43;;
12171;SDS011;6149;52.418;13.668;2023-10-09T14:40:52;5.67;;;5.10;;
12171;SDS011;6149;52.418;13.668;2023-10-09T14:43:22;7.60;;;5.80;;
12171;SDS011;6149;52.418;13.668;2023-10-09T14:45:53;7.00;;;5.33;;
12171;SDS011;6149;52.418;13.668;2023-10-09T14:48:20;6.83;;;5.63;;
12171;SDS011;6149;52.418;13.668;2023-10-09T14:50:51;6.13;;;5.40;;
12171;SDS011;6149;52.418;13.668;2023-10-09T14:53:19;6.80;;;5.70;;
12171;SDS011;6149;52.418;13.668;2023-10-09T14:55:53;7.17;;;6.43;;
12171;SDS011;6149;52.418;13.668;2023-10-09T14:58:21;7.10;;;6.30;;
12171;SDS011;6149;52.418;13.668;2023-10-09T15:00:49;6.20;;;5.50;;
12171;SDS011;6149;52.418;13.668;2023-10-09T15:03:18;6.00;;;5.37;;
12171;SDS011;6149;52.418;13.668;2023-10-09T15:05:45;6.27;;;5.57;;
12171;SDS011;6149;52.418;13.668;2023-10-09T15:08:13;7.93;;;5.67;;
12171;SDS011;6149;52.418;13.668;2023-10-09T15:10:46;6.43;;;5.83;;
12171;SDS011;6149;52.418;13.668;2023-10-09T15:13:13;5.47;;;4.97;;
12171;SDS011;6149;52.418;13.668;2023-10-09T15:15:41;5.80;;;5.20;;
12171;SDS011;6149;52.418;13.668;2023-10-09T15:18:08;7.57;;;6.47;;
12171;SDS011;6149;52.418;13.668;2023-10-09T15:20:38;6.47;;;5.70;;
12171;SDS011;6149;52.418;13.668;2023-10-09T15:23:06;7.47;;;6.37;;
12171;SDS011;6149;52.418;13.668;2023-10-09T15:25:35;7.60;;;6.40;;
12171;SDS011;6149;52.418;13.668;2023-10-09T15:28:04;7.43;;;5.70;;
12171;SDS011;6149;52.418;13.668;2023-10-09T15:30:32;6.90;;;6.20;;
12171;SDS011;6149;52.418;13.668;2023-10-09T15:32:59;8.83;;;7.40;;
12171;SDS011;6149;52.418;13.668;2023-10-09T15:35:26;7.30;;;6.60;;
12171;SDS011;6149;52.418;13.668;2023-10-09T15:37:54;13.97;;;12.83;;